createdAt,value
2022-10-15T00:02:01.212Z,10.60
2022-10-15T00:04:31.823Z,10.60
2022-10-15T00:07:02.360Z,10.60
2022-10-15T00:09:32.493Z,10.60
2022-10-15T00:12:00.786Z,10.60
2022-10-15T00:14:29.236Z,10.60
2022-10-15T00:17:02.600Z,10.60
2022-10-15T00:19:33.418Z,10.60
2022-10-15T00:24:30.431Z,10.60
2022-10-15T00:27:00.330Z,10.60
2022-10-15T00:29:28.688Z,10.60
2022-10-15T00:32:00.513Z,10.60
2022-10-15T00:34:28.801Z,10.60
2022-10-15T00:36:56.547Z,10.60
2022-10-15T00:39:26.989Z,10.60
2022-10-15T00:41:55.336Z,10.60
2022-10-15T00:44:26.817Z,10.60
2022-10-15T00:47:04.719Z,10.50
2022-10-15T00:49:48.869Z,10.50
2022-10-15T00:52:26.605Z,10.50
2022-10-15T00:55:11.545Z,10.50
2022-10-15T00:57:40.521Z,10.50
2022-10-15T01:00:13.011Z,10.50
2022-10-15T01:02:44.374Z,10.40
2022-10-15T01:05:16.353Z,10.40
2022-10-15T01:07:46.874Z,10.40
2022-10-15T01:10:35.704Z,10.40
2022-10-15T01:13:14.904Z,10.40
2022-10-15T01:16:18.445Z,10.30
2022-10-15T01:18:52.326Z,10.30
2022-10-15T01:21:37.646Z,10.30
2022-10-15T01:24:28.282Z,10.30
2022-10-15T01:27:21.193Z,10.30
2022-10-15T01:30:24.162Z,10.30
2022-10-15T01:33:27.677Z,10.30
2022-10-15T01:36:19.344Z,10.30
2022-10-15T01:39:30.236Z,10.20
2022-10-15T01:42:26.298Z,10.20
2022-10-15T01:45:00.699Z,10.20
2022-10-15T01:47:56.828Z,10.20
2022-10-15T01:50:34.122Z,10.20
2022-10-15T01:53:11.166Z,10.20
2022-10-15T01:55:44.261Z,10.20
2022-10-15T01:58:14.671Z,10.20
2022-10-15T02:00:43.374Z,10.20
2022-10-15T02:03:11.182Z,10.20
2022-10-15T02:05:45.670Z,10.20
2022-10-15T02:08:25.680Z,10.20
2022-10-15T02:11:11.906Z,10.20
2022-10-15T02:14:02.383Z,10.20
2022-10-15T02:16:59.753Z,10.20
2022-10-15T02:19:42.788Z,10.20
2022-10-15T02:22:49.582Z,10.20
2022-10-15T02:25:24.340Z,10.20
2022-10-15T02:27:59.494Z,10.20
2022-10-15T02:30:30.341Z,10.10
2022-10-15T02:33:00.430Z,10.10
2022-10-15T02:35:29.236Z,10.20
2022-10-15T02:38:05.650Z,10.20
2022-10-15T02:40:39.038Z,10.10
2022-10-15T02:43:13.223Z,10.10
2022-10-15T02:45:41.738Z,10.10
2022-10-15T02:48:10.349Z,10.10
2022-10-15T02:50:41.197Z,10.10
2022-10-15T02:53:09.237Z,10.10
2022-10-15T02:55:38.198Z,10.10
2022-10-15T02:58:05.760Z,10.00
2022-10-15T03:00:34.295Z,10.10
2022-10-15T03:03:03.399Z,10.10
2022-10-15T03:05:31.797Z,10.10
2022-10-15T03:08:03.630Z,10.00
2022-10-15T03:10:32.766Z,10.10
2022-10-15T03:13:10.482Z,10.00
2022-10-15T03:15:47.131Z,10.00
2022-10-15T03:18:16.309Z,10.00
2022-10-15T03:20:55.584Z,10.00
2022-10-15T03:23:24.747Z,10.00
2022-10-15T03:26:03.434Z,10.00
2022-10-15T03:28:33.880Z,10.00
2022-10-15T03:31:01.908Z,10.00
2022-10-15T03:33:31.378Z,10.00
2022-10-15T03:35:59.310Z,10.00
2022-10-15T03:38:29.472Z,9.90
2022-10-15T03:40:59.256Z,9.90
2022-10-15T03:43:37.398Z,9.90
2022-10-15T03:46:09.598Z,9.90
2022-10-15T03:48:50.661Z,9.90
2022-10-15T03:51:24.372Z,9.90
2022-10-15T03:53:59.274Z,9.90
2022-10-15T03:56:27.560Z,9.80
2022-10-15T03:59:07.438Z,9.80
2022-10-15T04:01:36.199Z,9.80
2022-10-15T04:04:06.809Z,9.80
2022-10-15T04:06:38.961Z,9.70
2022-10-15T04:09:12.008Z,9.70
2022-10-15T04:11:41.428Z,9.70
2022-10-15T04:14:09.809Z,9.70
2022-10-15T04:16:38.244Z,9.70
2022-10-15T04:19:17.818Z,9.70
2022-10-15T04:21:56.762Z,9.70
2022-10-15T04:24:34.710Z,9.60
2022-10-15T04:27:02.978Z,9.60
2022-10-15T04:29:34.952Z,9.60
2022-10-15T04:32:17.984Z,9.60
2022-10-15T04:34:47.534Z,9.60
2022-10-15T04:37:17.514Z,9.60
2022-10-15T04:39:45.154Z,9.50
2022-10-15T04:42:22.336Z,9.50
2022-10-15T04:44:53.417Z,9.50
2022-10-15T04:47:24.731Z,9.60
2022-10-15T04:50:03.896Z,9.50
2022-10-15T04:52:54.732Z,9.50
2022-10-15T04:55:31.206Z,9.50
2022-10-15T04:58:07.088Z,9.50
2022-10-15T05:00:38.829Z,9.50
2022-10-15T05:03:38.517Z,9.60
2022-10-15T05:06:13.974Z,9.60
2022-10-15T05:08:47.464Z,9.50
2022-10-15T05:11:25.823Z,9.50
2022-10-15T05:13:58.462Z,9.50
2022-10-15T05:16:29.507Z,9.50
2022-10-15T05:19:05.121Z,9.50
2022-10-15T05:21:37.406Z,9.60
2022-10-15T05:24:17.160Z,9.50
2022-10-15T05:27:14.301Z,9.50
2022-10-15T05:29:43.309Z,9.50
2022-10-15T05:32:14.101Z,9.50
2022-10-15T05:34:42.223Z,9.50
2022-10-15T05:37:15.211Z,9.50
2022-10-15T05:39:46.557Z,9.50
2022-10-15T05:42:17.087Z,9.60
2022-10-15T05:44:57.664Z,9.60
2022-10-15T05:47:28.150Z,9.60
2022-10-15T05:50:13.273Z,9.60
2022-10-15T05:52:45.401Z,9.70
2022-10-15T05:55:42.699Z,9.70
2022-10-15T05:58:15.732Z,9.70
2022-10-15T06:00:46.268Z,9.80
2022-10-15T06:03:14.939Z,9.80
2022-10-15T06:05:42.863Z,9.90
2022-10-15T06:08:11.604Z,9.90
2022-10-15T06:10:40.040Z,10.00
2022-10-15T06:13:09.185Z,10.00
2022-10-15T06:15:53.843Z,10.00
2022-10-15T06:18:23.332Z,10.10
2022-10-15T06:20:54.898Z,10.10
2022-10-15T06:23:24.459Z,10.20
2022-10-15T06:25:52.632Z,10.20
2022-10-15T06:28:21.195Z,10.20
2022-10-15T06:30:48.852Z,10.30
2022-10-15T06:33:19.550Z,10.30
2022-10-15T06:35:47.703Z,10.40
2022-10-15T06:38:15.593Z,10.40
2022-10-15T06:40:43.551Z,10.40
2022-10-15T06:43:12.567Z,10.50
2022-10-15T06:45:42.720Z,10.50
2022-10-15T06:48:18.744Z,10.60
2022-10-15T06:50:46.501Z,10.50
2022-10-15T06:53:14.218Z,10.60
2022-10-15T06:55:45.838Z,10.70
2022-10-15T06:58:13.706Z,10.70
2022-10-15T07:00:41.603Z,10.80
2022-10-15T07:03:12.545Z,10.80
2022-10-15T07:05:40.421Z,10.80
2022-10-15T07:08:08.959Z,10.90
2022-10-15T07:10:43.610Z,10.90
2022-10-15T07:13:11.672Z,10.90
2022-10-15T07:15:39.529Z,11.00
2022-10-15T07:18:07.580Z,11.00
2022-10-15T07:20:40.411Z,11.10
2022-10-15T07:23:08.026Z,11.10
2022-10-15T07:25:36.704Z,11.20
2022-10-15T07:28:04.852Z,11.20
2022-10-15T07:30:36.363Z,11.30
2022-10-15T07:33:04.357Z,11.40
2022-10-15T07:35:38.997Z,11.40
2022-10-15T07:38:07.097Z,11.50
2022-10-15T07:40:35.170Z,11.60
2022-10-15T07:43:04.446Z,11.60
2022-10-15T07:45:32.857Z,11.70
2022-10-15T07:48:03.285Z,11.80
2022-10-15T07:50:34.285Z,11.80
2022-10-15T07:53:07.110Z,11.90
2022-10-15T07:55:35.278Z,12.00
2022-10-15T07:58:06.082Z,12.10
2022-10-15T08:00:35.104Z,12.20
2022-10-15T08:03:03.207Z,12.20
2022-10-15T08:05:31.365Z,12.20
2022-10-15T08:08:00.102Z,12.30
2022-10-15T08:10:28.229Z,12.30
2022-10-15T08:12:57.583Z,12.30
2022-10-15T08:15:25.224Z,12.30
2022-10-15T08:17:56.944Z,12.30
2022-10-15T08:20:25.048Z,12.30
2022-10-15T08:22:53.423Z,12.40
2022-10-15T08:25:22.268Z,12.40
2022-10-15T08:27:50.668Z,12.50
2022-10-15T08:30:21.261Z,12.60
2022-10-15T08:32:52.355Z,12.60
2022-10-15T08:35:20.021Z,12.70
2022-10-15T08:37:47.862Z,12.70
2022-10-15T08:40:17.162Z,12.80
2022-10-15T08:42:46.934Z,12.90
2022-10-15T08:45:22.900Z,12.90
2022-10-15T08:48:07.576Z,13.00
2022-10-15T08:51:02.528Z,13.10
2022-10-15T08:53:49.740Z,13.10
2022-10-15T08:56:30.755Z,13.20
2022-10-15T08:59:08.133Z,13.30
2022-10-15T09:02:02.062Z,13.40
2022-10-15T09:04:52.329Z,13.40
2022-10-15T09:07:50.824Z,13.50
2022-10-15T09:11:00.042Z,13.60
2022-10-15T09:13:50.110Z,13.70
2022-10-15T09:16:38.398Z,13.80
2022-10-15T09:19:21.568Z,13.90
2022-10-15T09:21:51.386Z,13.90
2022-10-15T09:24:25.661Z,14.00
2022-10-15T09:27:27.095Z,14.10
2022-10-15T09:30:09.602Z,14.20
2022-10-15T09:32:52.006Z,14.30
2022-10-15T09:35:38.791Z,14.40
2022-10-15T09:38:35.470Z,14.50
2022-10-15T09:41:04.447Z,14.60
2022-10-15T09:43:39.400Z,14.70
2022-10-15T09:46:07.219Z,14.80
2022-10-15T09:49:04.497Z,14.80
2022-10-15T09:51:46.028Z,14.90
2022-10-15T09:54:42.898Z,14.90
2022-10-15T09:57:13.426Z,15.00
2022-10-15T09:59:52.322Z,15.10
2022-10-15T10:02:21.921Z,15.20
2022-10-15T10:04:58.526Z,15.20
2022-10-15T10:07:38.773Z,15.30
2022-10-15T10:10:35.340Z,15.40
2022-10-15T10:13:03.305Z,15.40
2022-10-15T10:15:43.777Z,15.50
2022-10-15T10:18:20.627Z,15.50
2022-10-15T10:20:57.595Z,15.60
2022-10-15T10:23:31.728Z,15.70
2022-10-15T10:26:02.668Z,15.70
2022-10-15T10:28:49.369Z,15.80
2022-10-15T10:31:18.348Z,15.90
2022-10-15T10:33:49.358Z,15.90
2022-10-15T10:36:43.378Z,16.00
2022-10-15T10:39:31.967Z,16.10
2022-10-15T10:42:23.058Z,16.10
2022-10-15T10:44:52.704Z,16.30
2022-10-15T10:47:31.441Z,16.30
2022-10-15T10:50:28.482Z,16.30
2022-10-15T10:52:57.735Z,16.40
2022-10-15T10:55:40.333Z,16.50
2022-10-15T10:58:23.478Z,16.50
2022-10-15T11:00:58.721Z,16.60
2022-10-15T11:03:43.162Z,16.70
2022-10-15T11:06:30.270Z,16.70
2022-10-15T11:09:26.250Z,16.70
2022-10-15T11:12:33.379Z,16.80
2022-10-15T11:15:36.139Z,16.90
2022-10-15T11:18:37.311Z,16.90
2022-10-15T11:21:43.847Z,16.90
2022-10-15T11:24:26.071Z,17.00
2022-10-15T11:27:11.910Z,17.00
2022-10-15T11:29:42.316Z,17.10
2022-10-15T11:32:42.119Z,17.10
2022-10-15T11:35:55.409Z,17.20
2022-10-15T11:38:52.062Z,17.10
2022-10-15T11:41:50.928Z,17.20
2022-10-15T11:44:28.673Z,17.20
2022-10-15T11:47:28.426Z,17.30
2022-10-15T11:50:33.050Z,17.30
2022-10-15T11:53:00.680Z,17.30
2022-10-15T11:55:41.544Z,17.30
2022-10-15T11:58:31.284Z,17.30
2022-10-15T12:01:09.037Z,17.30
2022-10-15T12:03:54.385Z,17.30
2022-10-15T12:06:28.031Z,17.30
2022-10-15T12:09:02.312Z,17.20
2022-10-15T12:11:51.846Z,17.20
2022-10-15T12:14:43.704Z,17.20
2022-10-15T12:17:22.642Z,17.20
2022-10-15T12:20:00.913Z,17.20
2022-10-15T12:22:44.453Z,17.30
2022-10-15T12:25:35.015Z,17.30
2022-10-15T12:28:12.063Z,17.30
2022-10-15T12:30:43.153Z,17.40
2022-10-15T12:33:29.313Z,17.40
2022-10-15T12:36:09.558Z,17.40
2022-10-15T12:38:43.347Z,17.40
2022-10-15T12:41:14.863Z,17.50
2022-10-15T12:43:54.126Z,17.50
2022-10-15T12:46:38.478Z,17.50
2022-10-15T12:49:27.819Z,17.50
2022-10-15T12:52:02.293Z,17.50
2022-10-15T12:54:48.985Z,17.60
2022-10-15T12:57:31.586Z,17.50
2022-10-15T13:00:25.563Z,17.50
2022-10-15T13:03:04.622Z,17.50
2022-10-15T13:05:44.050Z,17.50
2022-10-15T13:08:23.360Z,17.50
2022-10-15T13:10:55.724Z,17.50
2022-10-15T13:13:36.281Z,17.50
2022-10-15T13:16:13.220Z,17.60
2022-10-15T13:18:43.109Z,17.60
2022-10-15T13:21:13.785Z,17.60
2022-10-15T13:23:50.409Z,17.60
2022-10-15T13:26:27.669Z,17.60
2022-10-15T13:28:58.332Z,17.60
2022-10-15T13:31:36.699Z,17.60
2022-10-15T13:34:36.008Z,17.60
2022-10-15T13:37:04.940Z,17.60
2022-10-15T13:39:42.254Z,17.60
2022-10-15T13:42:15.358Z,17.50
2022-10-15T13:44:58.558Z,17.50
2022-10-15T13:47:32.592Z,17.50
2022-10-15T13:50:18.644Z,17.40
2022-10-15T13:52:50.452Z,17.40
2022-10-15T13:55:25.564Z,17.40
2022-10-15T13:58:10.013Z,17.30
2022-10-15T14:00:38.014Z,17.30
2022-10-15T14:03:26.930Z,17.30
2022-10-15T14:05:56.000Z,17.30
2022-10-15T14:08:32.981Z,17.20
2022-10-15T14:11:01.440Z,17.20
2022-10-15T14:13:29.981Z,17.20
2022-10-15T14:16:18.015Z,17.20
2022-10-15T14:18:52.029Z,17.10
2022-10-15T14:21:33.122Z,17.10
2022-10-15T14:24:21.918Z,17.10
2022-10-15T14:26:52.801Z,17.10
2022-10-15T14:29:29.683Z,17.10
2022-10-15T14:32:00.368Z,17.00
2022-10-15T14:34:38.845Z,17.00
2022-10-15T14:37:43.507Z,17.00
2022-10-15T14:40:16.484Z,16.90
2022-10-15T14:43:02.676Z,16.90
2022-10-15T14:45:37.005Z,16.90
2022-10-15T14:48:27.966Z,16.90
2022-10-15T14:51:00.875Z,16.80
2022-10-15T14:53:36.930Z,16.80
2022-10-15T14:56:20.459Z,16.80
2022-10-15T14:58:56.901Z,16.80
2022-10-15T15:01:27.946Z,16.70
2022-10-15T15:03:57.635Z,16.70
2022-10-15T15:06:25.572Z,16.70
2022-10-15T15:08:55.968Z,16.70
2022-10-15T15:11:27.894Z,16.70
2022-10-15T15:13:55.820Z,16.70
2022-10-15T15:16:23.901Z,16.60
2022-10-15T15:18:51.938Z,16.60
2022-10-15T15:21:24.335Z,16.60
2022-10-15T15:23:52.294Z,16.60
2022-10-15T15:26:25.854Z,16.50
2022-10-15T15:28:57.091Z,16.50
2022-10-15T15:31:25.505Z,16.50
2022-10-15T15:33:55.480Z,16.40
2022-10-15T15:36:23.991Z,16.40
2022-10-15T15:38:52.235Z,16.40
2022-10-15T15:41:22.904Z,16.40
2022-10-15T15:43:51.822Z,16.40
2022-10-15T15:46:20.023Z,16.30
2022-10-15T15:48:47.935Z,16.30
2022-10-15T15:51:30.877Z,16.30
2022-10-15T15:53:59.149Z,16.30
2022-10-15T15:56:27.300Z,16.30
2022-10-15T15:58:55.001Z,16.20
2022-10-15T16:01:25.620Z,16.20
2022-10-15T16:03:56.235Z,16.20
2022-10-15T16:06:24.413Z,16.20
2022-10-15T16:08:53.279Z,16.20
2022-10-15T16:11:21.484Z,16.10
2022-10-15T16:13:49.349Z,16.10
2022-10-15T16:16:18.508Z,16.10
2022-10-15T16:18:46.444Z,16.10
2022-10-15T16:21:14.450Z,16.10
2022-10-15T16:23:42.602Z,16.10
2022-10-15T16:26:13.244Z,16.10
2022-10-15T16:28:41.036Z,16.10
2022-10-15T16:31:30.343Z,16.00
2022-10-15T16:34:06.462Z,16.10
2022-10-15T16:36:39.806Z,16.00
2022-10-15T16:39:07.606Z,16.00
2022-10-15T16:41:37.864Z,16.00
2022-10-15T16:44:05.635Z,16.00
2022-10-15T16:46:33.783Z,16.00
2022-10-15T16:49:04.553Z,15.90
2022-10-15T16:51:32.582Z,15.90
2022-10-15T16:54:00.617Z,15.90
2022-10-15T16:56:32.882Z,15.90
2022-10-15T16:59:01.655Z,15.90
2022-10-15T17:01:30.249Z,16.00
2022-10-15T17:03:59.320Z,16.00
2022-10-15T17:06:30.471Z,15.90
2022-10-15T17:09:00.326Z,15.90
2022-10-15T17:11:31.812Z,15.90
2022-10-15T17:14:01.812Z,15.90
2022-10-15T17:16:40.141Z,15.90
2022-10-15T17:19:09.076Z,15.90
2022-10-15T17:21:42.440Z,15.90
2022-10-15T17:24:17.990Z,15.90
2022-10-15T17:26:50.041Z,15.90
2022-10-15T17:29:20.951Z,15.90
2022-10-15T17:31:50.020Z,15.90
2022-10-15T17:34:18.612Z,15.90
2022-10-15T17:36:49.964Z,15.90
2022-10-15T17:39:20.861Z,15.90
2022-10-15T17:41:51.225Z,15.90
2022-10-15T17:44:19.524Z,15.90
2022-10-15T17:49:35.331Z,15.80
2022-10-15T17:52:03.497Z,15.80
2022-10-15T17:54:33.625Z,15.70
2022-10-15T17:57:01.904Z,15.70
2022-10-15T17:59:29.696Z,15.70
2022-10-15T18:02:03.037Z,15.60
2022-10-15T18:04:36.927Z,15.70
2022-10-15T18:07:05.151Z,15.60
2022-10-15T18:09:35.882Z,15.60
2022-10-15T18:12:04.056Z,15.50
2022-10-15T18:14:35.106Z,15.50
2022-10-15T18:17:05.844Z,15.50
2022-10-15T18:19:34.096Z,15.50
2022-10-15T18:22:04.537Z,15.50
2022-10-15T18:24:34.599Z,15.50
2022-10-15T18:27:10.902Z,15.40
2022-10-15T18:29:39.788Z,15.40
2022-10-15T18:32:07.833Z,15.30
2022-10-15T18:34:37.777Z,15.30
2022-10-15T18:37:06.015Z,15.30
2022-10-15T18:39:34.004Z,15.30
2022-10-15T18:42:02.757Z,15.20
2022-10-15T18:44:30.688Z,15.20
2022-10-15T18:47:01.534Z,15.20
2022-10-15T18:49:29.372Z,15.20
2022-10-15T18:52:00.412Z,15.20
2022-10-15T18:54:36.651Z,15.20
2022-10-15T18:57:05.563Z,15.20
2022-10-15T18:59:33.315Z,15.10
2022-10-15T19:02:02.766Z,15.20
2022-10-15T19:04:31.287Z,15.10
2022-10-15T19:07:02.514Z,15.10
2022-10-15T19:09:31.685Z,15.10
2022-10-15T19:11:59.716Z,15.10
2022-10-15T19:14:28.547Z,15.10
2022-10-15T19:16:57.449Z,15.10
2022-10-15T19:19:26.658Z,15.10
2022-10-15T19:21:58.468Z,15.10
2022-10-15T19:24:26.486Z,15.00
2022-10-15T19:26:54.749Z,15.00
2022-10-15T19:29:22.518Z,15.00
2022-10-15T19:31:54.742Z,15.00
2022-10-15T19:34:23.450Z,15.00
2022-10-15T19:36:52.162Z,15.00
2022-10-15T19:39:24.768Z,15.00
2022-10-15T19:41:53.746Z,14.90
2022-10-15T19:44:25.869Z,14.90
2022-10-15T19:46:56.395Z,14.90
2022-10-15T19:49:25.579Z,14.90
2022-10-15T19:51:53.988Z,14.90
2022-10-15T19:54:22.150Z,14.90
2022-10-15T19:56:50.342Z,14.90
2022-10-15T19:59:18.467Z,14.90
2022-10-15T20:01:47.013Z,14.90
2022-10-15T20:04:14.682Z,14.90
2022-10-15T20:06:43.827Z,14.90
2022-10-15T20:09:11.463Z,14.90
2022-10-15T20:11:39.606Z,14.90
2022-10-15T20:14:07.622Z,14.90
2022-10-15T20:16:35.726Z,14.90
2022-10-15T20:19:05.636Z,14.90
2022-10-15T20:21:34.100Z,14.90
2022-10-15T20:24:05.320Z,14.90
2022-10-15T20:26:33.716Z,14.90
2022-10-15T20:29:01.455Z,14.90
2022-10-15T20:31:33.151Z,14.80
2022-10-15T20:34:02.868Z,14.80
2022-10-15T20:36:31.245Z,14.90
2022-10-15T20:39:00.925Z,14.90
2022-10-15T20:41:29.353Z,14.90
2022-10-15T20:43:57.394Z,14.90
2022-10-15T20:46:32.959Z,14.90
2022-10-15T20:49:08.442Z,14.90
2022-10-15T20:51:40.050Z,14.90
2022-10-15T20:54:08.546Z,14.90
2022-10-15T20:56:36.591Z,14.90
2022-10-15T20:59:05.325Z,14.90
2022-10-15T21:01:35.065Z,14.90
2022-10-15T21:04:03.885Z,14.90
2022-10-15T21:06:32.177Z,14.90
2022-10-15T21:09:00.239Z,14.90
2022-10-15T21:11:28.477Z,15.00
2022-10-15T21:13:56.559Z,15.00
2022-10-15T21:16:27.457Z,15.00
2022-10-15T21:18:56.285Z,15.00
2022-10-15T21:21:24.591Z,15.00
2022-10-15T21:23:52.908Z,15.00
2022-10-15T21:26:22.216Z,15.00
2022-10-15T21:28:55.090Z,15.00
2022-10-15T21:31:23.832Z,15.00
2022-10-15T21:33:52.311Z,15.00
2022-10-15T21:36:23.062Z,15.00
2022-10-15T21:39:07.506Z,15.00
2022-10-15T21:41:38.753Z,15.00
2022-10-15T21:44:07.911Z,15.00
2022-10-15T21:46:36.330Z,15.10
2022-10-15T21:49:04.247Z,15.00
2022-10-15T21:51:36.131Z,15.10
2022-10-15T21:54:06.070Z,15.10
2022-10-15T21:56:35.180Z,15.10
2022-10-15T21:59:03.032Z,15.10
2022-10-15T22:01:33.852Z,15.10
2022-10-15T22:04:06.803Z,15.10
2022-10-15T22:06:35.780Z,15.10
2022-10-15T22:09:04.621Z,15.10
2022-10-15T22:11:35.583Z,15.10
2022-10-15T22:14:06.364Z,15.10
2022-10-15T22:16:36.943Z,15.10
2022-10-15T22:19:05.833Z,15.00
2022-10-15T22:21:36.639Z,15.00
2022-10-15T22:24:08.330Z,15.00
2022-10-15T22:26:39.074Z,15.00
2022-10-15T22:29:09.354Z,15.00
2022-10-15T22:31:37.412Z,15.00
2022-10-15T22:34:05.173Z,15.00
2022-10-15T22:36:33.237Z,15.00
2022-10-15T22:39:05.226Z,15.00
2022-10-15T22:41:41.950Z,15.00
2022-10-15T22:44:15.227Z,15.00
2022-10-15T22:46:49.764Z,15.00
2022-10-15T22:49:22.792Z,15.00
2022-10-15T22:51:51.174Z,15.00
2022-10-15T22:54:20.925Z,15.00
2022-10-15T22:56:50.124Z,15.00
2022-10-15T22:59:18.121Z,14.90
2022-10-15T23:01:47.027Z,14.90
2022-10-15T23:04:16.648Z,14.90
2022-10-15T23:06:45.169Z,14.90
2022-10-15T23:09:18.222Z,14.80
2022-10-15T23:11:46.898Z,14.80
2022-10-15T23:14:16.504Z,14.80
2022-10-15T23:16:49.836Z,14.80
2022-10-15T23:19:20.485Z,14.80
2022-10-15T23:21:49.728Z,14.70
2022-10-15T23:24:20.805Z,14.70
2022-10-15T23:26:49.359Z,14.70
2022-10-15T23:29:23.292Z,14.60
2022-10-15T23:31:52.782Z,14.60
2022-10-15T23:34:22.625Z,14.60
2022-10-15T23:36:51.887Z,14.60
2022-10-15T23:39:24.089Z,14.50
2022-10-15T23:41:52.687Z,14.60
2022-10-15T23:44:20.731Z,14.60
2022-10-15T23:46:49.166Z,14.50
2022-10-15T23:49:17.023Z,14.50
2022-10-15T23:51:45.240Z,14.40
2022-10-15T23:54:18.368Z,14.40
2022-10-15T23:56:47.638Z,14.40
2022-10-15T23:59:17.253Z,14.40
